Time;durP1;ratioP1;P1;durP2;ratioP2;P2;SDS_P1;SDS_P2;PMS_P1;PMS_P2;Temp;Humidity;BMP_temperature;BMP_pressure;BME280_temperature;BME280_humidity;BME280_pressure;Samples;Min_cycle;Max_cycle;Signal;HPM_P1;HPM_P2
2024/03/19 00:00:22;;;;;;;16.60;9.60;;;7.90;99.90;;;;;;5057725;28;20618;-72
2024/03/19 00:02:49;;;;;;;10.53;9.50;;;8.00;99.90;;;;;;5096351;28;20633;-72
2024/03/19 00:05:16;;;;;;;13.23;10.10;;;8.00;99.90;;;;;;5033191;28;20623;-72
2024/03/19 00:07:42;;;;;;;12.50;9.73;;;8.00;99.90;;;;;;5057987;28;20678;-72
2024/03/19 00:10:10;;;;;;;12.10;10.53;;;8.00;99.90;;;;;;5129710;28;20664;-72
2024/03/19 00:12:38;;;;;;;11.93;10.50;;;7.80;99.90;;;;;;5050728;28;20638;-72
2024/03/19 00:15:06;;;;;;;10.17;8.73;;;7.80;99.90;;;;;;5105262;27;21182;-72
2024/03/19 00:17:33;;;;;;;9.83;8.83;;;7.80;99.90;;;;;;5112528;27;20626;-72
2024/03/19 00:19:59;;;;;;;9.40;8.40;;;7.80;99.90;;;;;;5033950;28;20625;-72
2024/03/19 00:22:26;;;;;;;8.53;7.73;;;7.70;99.90;;;;;;5089311;27;20618;-72
2024/03/19 00:24:53;;;;;;;12.03;9.40;;;7.70;99.90;;;;;;5085829;27;20631;-72
2024/03/19 00:27:20;;;;;;;11.13;9.10;;;7.60;99.90;;;;;;5044336;28;20625;-72
2024/03/19 00:29:49;;;;;;;11.57;10.20;;;7.50;99.90;;;;;;5095638;27;20647;-72
2024/03/19 00:32:16;;;;;;;12.57;9.80;;;7.60;99.90;;;;;;5104980;27;20661;-71
2024/03/19 00:34:43;;;;;;;13.00;9.67;;;7.50;99.90;;;;;;5057223;27;20950;-72
2024/03/19 00:37:09;;;;;;;13.60;10.33;;;7.70;99.90;;;;;;5084849;27;20643;-73
2024/03/19 00:39:36;;;;;;;10.70;9.63;;;7.70;99.90;;;;;;5120041;27;20619;-71
2024/03/19 00:42:03;;;;;;;13.23;10.70;;;7.70;99.90;;;;;;5078843;27;20622;-72
2024/03/19 00:44:30;;;;;;;12.10;9.73;;;7.70;99.90;;;;;;5036414;28;20976;-72
2024/03/19 00:46:58;;;;;;;10.10;9.03;;;7.70;99.90;;;;;;5062004;27;20629;-71
2024/03/19 00:49:26;;;;;;;9.40;8.43;;;7.70;99.90;;;;;;5128923;27;20941;-72
2024/03/19 00:51:53;;;;;;;11.47;8.77;;;7.70;99.90;;;;;;5129221;27;20622;-72
2024/03/19 00:54:20;;;;;;;11.20;9.20;;;7.70;99.90;;;;;;5043315;28;21166;-72
2024/03/19 00:56:47;;;;;;;8.90;7.97;;;7.70;99.90;;;;;;5065936;27;20622;-71
2024/03/19 00:59:13;;;;;;;10.77;8.77;;;7.80;99.90;;;;;;5062923;27;20645;-72
2024/03/19 01:01:40;;;;;;;11.00;9.83;;;7.80;99.90;;;;;;5050127;27;21155;-72
2024/03/19 01:04:08;;;;;;;9.47;8.53;;;7.80;99.90;;;;;;5133190;27;20632;-71
2024/03/19 01:06:36;;;;;;;10.70;9.07;;;7.70;99.90;;;;;;5064182;27;20622;-72
2024/03/19 01:09:05;;;;;;;10.30;9.27;;;7.80;99.90;;;;;;5097081;27;21181;-72
2024/03/19 01:11:32;;;;;;;9.40;8.50;;;7.70;99.90;;;;;;5114743;27;20749;-73
2024/03/19 01:13:59;;;;;;;14.13;8.70;;;7.70;99.90;;;;;;5081676;27;20626;-72
2024/03/19 01:16:26;;;;;;;10.13;8.97;;;7.70;99.90;;;;;;5048288;28;20689;-72
2024/03/19 01:18:52;;;;;;;8.60;7.70;;;7.70;99.90;;;;;;5123744;27;20618;-71
2024/03/19 01:21:21;;;;;;;11.40;9.30;;;7.70;99.90;;;;;;5076739;27;20679;-72
2024/03/19 01:23:47;;;;;;;9.10;8.20;;;7.70;99.90;;;;;;5084122;27;20627;-72
2024/03/19 01:26:14;;;;;;;9.47;8.47;;;7.70;99.90;;;;;;5015497;28;20625;-73
2024/03/19 01:28:41;;;;;;;9.70;8.10;;;7.80;99.90;;;;;;5047221;28;20622;-72
2024/03/19 01:31:08;;;;;;;9.20;8.00;;;7.80;99.90;;;;;;5130511;27;20650;-72
2024/03/19 01:33:34;;;;;;;10.43;8.10;;;7.80;99.90;;;;;;5069913;27;20734;-72
2024/03/19 01:36:01;;;;;;;9.93;8.47;;;7.80;99.90;;;;;;5089639;27;21116;-72
2024/03/19 01:38:29;;;;;;;10.27;9.10;;;7.70;99.90;;;;;;5108094;27;20626;-71
2024/03/19 01:40:56;;;;;;;10.70;9.00;;;7.70;99.90;;;;;;5050527;27;20633;-71
2024/03/19 01:43:23;;;;;;;11.40;9.60;;;7.60;99.90;;;;;;5076172;27;20662;-71
2024/03/19 01:46:15;;;;;;;11.50;9.37;;;7.60;99.90;;;;;;5044115;28;21307;-71
2024/03/19 01:48:42;;;;;;;10.40;9.30;;;7.60;99.90;;;;;;5110556;27;20611;-71
2024/03/19 01:51:10;;;;;;;9.60;8.00;;;7.70;99.90;;;;;;5106356;27;20638;-71
2024/03/19 01:53:38;;;;;;;8.50;7.70;;;7.70;99.90;;;;;;5065288;27;20953;-71
2024/03/19 01:56:06;;;;;;;10.83;7.93;;;7.60;99.90;;;;;;5057593;27;20630;-71
2024/03/19 01:58:34;;;;;;;9.77;8.60;;;7.60;99.90;;;;;;5075548;27;20705;-71
2024/03/19 02:01:01;;;;;;;9.20;7.90;;;7.60;99.90;;;;;;5043991;28;20719;-71
2024/03/19 02:03:28;;;;;;;9.00;8.10;;;7.60;99.90;;;;;;5099175;27;21229;-71
2024/03/19 02:05:55;;;;;;;9.37;8.27;;;7.50;99.90;;;;;;5098164;27;21191;-71
2024/03/19 02:08:23;;;;;;;8.53;7.70;;;7.50;99.90;;;;;;5061028;27;20629;-71
2024/03/19 02:10:52;;;;;;;9.90;8.47;;;7.40;99.90;;;;;;5118212;27;20658;-71
2024/03/19 02:13:19;;;;;;;8.83;7.93;;;7.40;99.90;;;;;;5076148;27;20625;-71
2024/03/19 02:15:49;;;;;;;9.03;7.40;;;7.30;99.90;;;;;;5041505;28;20725;-71
2024/03/19 02:18:16;;;;;;;12.23;8.77;;;7.30;99.90;;;;;;5089254;27;20637;-71
2024/03/19 02:20:43;;;;;;;5.17;4.70;;;7.20;99.90;;;;;;5108375;27;20623;-71
2024/03/19 02:23:11;;;;;;;6.13;5.53;;;7.00;99.90;;;;;;5049733;27;20699;-71
2024/03/19 02:25:38;;;;;;;6.90;6.20;;;7.00;99.90;;;;;;5052593;27;20634;-72
2024/03/19 02:28:06;;;;;;;7.80;7.10;;;7.10;99.90;;;;;;5042812;28;20614;-72
2024/03/19 02:30:33;;;;;;;8.57;7.63;;;7.10;99.90;;;;;;5097123;27;20639;-72
2024/03/19 02:33:01;;;;;;;8.37;6.43;;;7.00;99.90;;;;;;5100004;27;20627;-72
2024/03/19 02:35:28;;;;;;;7.10;6.40;;;7.00;99.90;;;;;;5059081;27;20651;-72
2024/03/19 02:37:57;;;;;;;8.33;7.27;;;6.90;99.90;;;;;;5130118;27;20643;-71
2024/03/19 02:40:26;;;;;;;7.93;7.13;;;7.00;99.90;;;;;;5050934;27;21186;-71
2024/03/19 02:42:54;;;;;;;15.53;7.43;;;6.90;99.90;;;;;;5071610;27;20627;-71
2024/03/19 02:45:23;;;;;;;6.93;5.87;;;6.90;99.90;;;;;;5036661;28;21186;-72
2024/03/19 02:47:51;;;;;;;8.60;7.00;;;6.80;99.90;;;;;;5068215;27;20633;-72
2024/03/19 02:50:19;;;;;;;7.77;6.23;;;6.80;99.90;;;;;;5090658;27;20653;-76
2024/03/19 02:52:46;;;;;;;11.03;6.50;;;6.70;99.90;;;;;;5057490;27;21171;-74
2024/03/19 02:55:13;;;;;;;6.27;5.67;;;6.80;99.90;;;;;;5042681;28;20626;-72
2024/03/19 02:57:43;;;;;;;7.53;6.83;;;6.90;99.90;;;;;;5095262;27;20618;-72
2024/03/19 03:00:12;;;;;;;6.27;5.67;;;6.80;99.90;;;;;;5099394;27;20625;-72
2024/03/19 03:02:39;;;;;;;7.20;6.47;;;6.80;99.90;;;;;;5059600;27;20619;-72
2024/03/19 03:05:06;;;;;;;7.13;6.30;;;6.80;99.90;;;;;;5130206;27;21190;-72
2024/03/19 03:07:33;;;;;;;6.50;5.40;;;6.80;99.90;;;;;;5051352;27;20623;-72
2024/03/19 03:10:00;;;;;;;8.40;6.03;;;6.80;99.90;;;;;;5104727;27;20623;-72
2024/03/19 03:12:27;;;;;;;5.20;4.70;;;6.70;99.90;;;;;;5091746;27;20245;-73
2024/03/19 03:14:57;;;;;;;5.93;5.37;;;6.60;99.90;;;;;;5066259;27;20621;-72
2024/03/19 03:17:24;;;;;;;6.80;5.50;;;6.50;99.90;;;;;;5128276;27;21084;-72
2024/03/19 03:19:52;;;;;;;5.87;5.17;;;6.50;99.90;;;;;;5046592;28;20622;-72
2024/03/19 03:22:19;;;;;;;5.23;4.73;;;6.50;99.90;;;;;;5113066;27;20607;-72
2024/03/19 03:24:47;;;;;;;7.20;5.33;;;6.50;99.90;;;;;;5074898;27;20642;-72
2024/03/19 03:27:15;;;;;;;5.83;5.33;;;6.50;99.90;;;;;;5031781;28;20717;-71
2024/03/19 03:29:43;;;;;;;5.57;5.07;;;6.40;99.90;;;;;;5055027;28;21175;-72
2024/03/19 03:32:12;;;;;;;4.93;4.40;;;6.50;99.90;;;;;;5129768;27;20652;-72
2024/03/19 03:34:39;;;;;;;5.17;4.67;;;6.40;99.90;;;;;;5053142;28;20678;-71
2024/03/19 03:37:07;;;;;;;5.50;5.00;;;6.40;99.90;;;;;;5101940;27;21087;-72
2024/03/19 03:39:35;;;;;;;5.10;4.60;;;6.40;99.90;;;;;;5092393;27;20235;-72
2024/03/19 03:42:03;;;;;;;5.57;5.03;;;6.40;99.90;;;;;;5064887;28;20619;-71
2024/03/19 03:44:31;;;;;;;5.57;5.00;;;6.50;99.90;;;;;;5006482;28;21192;-72
2024/03/19 03:46:59;;;;;;;5.53;5.00;;;6.40;99.90;;;;;;5005735;28;20572;-72
2024/03/19 03:49:28;;;;;;;6.43;5.30;;;6.50;99.90;;;;;;5036356;28;20541;-72
2024/03/19 03:51:56;;;;;;;7.73;6.93;;;6.50;99.90;;;;;;5040221;28;20243;-72
2024/03/19 03:54:24;;;;;;;7.23;5.97;;;6.40;99.90;;;;;;5036582;28;20618;-72
2024/03/19 03:56:50;;;;;;;7.28;6.43;;;6.40;99.90;;;;;;5057129;27;20618;-72
2024/03/19 03:59:17;;;;;;;5.93;5.35;;;6.40;99.90;;;;;;5133767;27;20208;-72
2024/03/19 04:01:44;;;;;;;6.15;5.55;;;6.40;99.90;;;;;;5059333;27;20299;-72
2024/03/19 04:04:11;;;;;;;6.20;5.13;;;6.30;99.90;;;;;;5103957;27;20201;-72
2024/03/19 04:06:39;;;;;;;5.07;4.57;;;6.20;99.90;;;;;;5098987;27;20630;-71
2024/03/19 04:09:06;;;;;;;6.00;5.50;;;6.20;99.90;;;;;;5064272;27;20633;-72
2024/03/19 04:11:33;;;;;;;5.27;4.73;;;6.20;99.90;;;;;;5133795;27;21051;-71
2024/03/19 04:14:00;;;;;;;6.13;5.50;;;6.10;99.90;;;;;;5051851;27;20622;-72
2024/03/19 04:16:27;;;;;;;7.07;5.70;;;6.10;99.90;;;;;;5110692;27;20623;-72
2024/03/19 04:18:54;;;;;;;6.38;5.63;;;6.10;99.90;;;;;;5092040;27;20628;-72
2024/03/19 04:21:22;;;;;;;10.00;6.15;;;6.10;99.90;;;;;;5069882;27;20217;-71
2024/03/19 04:23:50;;;;;;;6.53;5.80;;;6.20;99.90;;;;;;5131071;27;20205;-72
2024/03/19 04:26:17;;;;;;;6.38;5.85;;;6.10;99.90;;;;;;5009259;28;20607;-72
2024/03/19 04:28:44;;;;;;;6.05;5.22;;;6.00;99.90;;;;;;5041582;28;20207;-72
2024/03/19 04:31:11;;;;;;;5.82;4.38;;;5.90;99.90;;;;;;5098628;27;20228;-72
2024/03/19 04:33:38;;;;;;;4.78;4.38;;;5.90;99.90;;;;;;5104251;27;20661;-71
2024/03/19 04:36:05;;;;;;;5.38;4.85;;;5.90;99.90;;;;;;5057666;27;20210;-72
2024/03/19 04:38:32;;;;;;;6.28;5.00;;;5.80;99.90;;;;;;5132211;27;20209;-72
2024/03/19 04:41:00;;;;;;;5.07;4.60;;;5.90;99.90;;;;;;5058079;27;20288;-72
2024/03/19 04:43:27;;;;;;;5.63;4.95;;;5.90;99.90;;;;;;5046075;27;20213;-72
2024/03/19 04:45:53;;;;;;;4.70;4.30;;;5.90;99.90;;;;;;5037110;28;20199;-72
2024/03/19 04:48:19;;;;;;;5.70;5.10;;;5.90;99.90;;;;;;5063615;27;20204;-72
2024/03/19 04:50:46;;;;;;;5.17;4.67;;;5.80;99.90;;;;;;5070266;27;20189;-71
2024/03/19 04:53:13;;;;;;;5.85;5.35;;;5.70;99.90;;;;;;5073483;27;20228;-72
2024/03/19 04:55:39;;;;;;;5.50;4.82;;;5.80;99.90;;;;;;5042899;28;20232;-72
2024/03/19 04:58:07;;;;;;;5.90;5.28;;;5.80;99.90;;;;;;5089694;27;20193;-71
2024/03/19 05:00:34;;;;;;;5.90;5.30;;;5.70;99.90;;;;;;5110716;27;20211;-72
2024/03/19 05:03:01;;;;;;;6.00;4.90;;;5.80;99.90;;;;;;5048779;27;20200;-71
2024/03/19 05:05:28;;;;;;;6.20;5.15;;;5.80;99.90;;;;;;5132654;27;20258;-71
2024/03/19 05:07:54;;;;;;;5.80;5.05;;;5.80;99.90;;;;;;5064044;27;20200;-71
2024/03/19 05:10:21;;;;;;;6.78;6.05;;;5.70;99.90;;;;;;5095838;27;20193;-72
2024/03/19 05:12:48;;;;;;;7.25;6.00;;;5.70;99.90;;;;;;5105403;27;20222;-72
2024/03/19 05:15:16;;;;;;;6.93;5.75;;;5.80;99.90;;;;;;5055875;27;20219;-72
2024/03/19 05:17:43;;;;;;;6.00;5.50;;;5.70;99.90;;;;;;5131499;27;20214;-73
2024/03/19 05:20:11;;;;;;;6.07;5.38;;;5.70;99.90;;;;;;5058224;27;20212;-72
2024/03/19 05:22:38;;;;;;;5.55;5.05;;;5.70;99.90;;;;;;5103213;27;20200;-72
2024/03/19 05:25:05;;;;;;;7.95;5.00;;;5.80;99.90;;;;;;5086477;27;20208;-72
2024/03/19 05:27:32;;;;;;;6.40;5.05;;;5.80;99.90;;;;;;5062898;27;20202;-72
2024/03/19 05:29:59;;;;;;;6.85;4.88;;;5.80;99.90;;;;;;5131853;27;20211;-72
2024/03/19 05:32:27;;;;;;;6.63;5.70;;;5.80;99.90;;;;;;5050785;27;20226;-72
2024/03/19 05:34:54;;;;;;;6.57;5.97;;;5.80;99.90;;;;;;5110090;27;20662;-72
2024/03/19 05:37:21;;;;;;;7.85;6.50;;;5.80;99.90;;;;;;5089833;27;20219;-72
2024/03/19 05:39:48;;;;;;;7.72;6.57;;;5.80;99.90;;;;;;5070278;27;20208;-72
2024/03/19 05:42:14;;;;;;;6.53;5.80;;;5.80;99.90;;;;;;5125912;27;20204;-71
2024/03/19 05:44:41;;;;;;;8.65;6.45;;;5.80;99.90;;;;;;5047135;28;20218;-72
2024/03/19 05:47:08;;;;;;;8.57;6.32;;;5.80;99.90;;;;;;5114933;27;20197;-72
2024/03/19 05:49:36;;;;;;;7.60;6.07;;;5.80;99.90;;;;;;5081585;27;20694;-72
2024/03/19 05:52:03;;;;;;;7.43;6.25;;;5.80;99.90;;;;;;5033600;28;20562;-72
2024/03/19 05:54:30;;;;;;;6.63;5.47;;;5.90;99.90;;;;;;5029947;28;20668;-72
2024/03/19 05:56:57;;;;;;;7.95;6.18;;;5.90;99.90;;;;;;5046774;28;20200;-72
2024/03/19 05:59:24;;;;;;;7.30;5.82;;;6.00;99.90;;;;;;5121458;27;20714;-72
2024/03/19 06:01:52;;;;;;;9.88;6.82;;;5.90;99.90;;;;;;5077035;27;20200;-72
2024/03/19 06:04:18;;;;;;;13.65;8.10;;;5.90;99.90;;;;;;5083390;27;20197;-72
2024/03/19 06:06:47;;;;;;;9.00;7.20;;;6.00;99.90;;;;;;5115922;27;20207;-72
2024/03/19 06:09:15;;;;;;;11.93;6.63;;;6.00;99.90;;;;;;5047508;28;20270;-72
2024/03/19 06:11:42;;;;;;;8.05;6.80;;;6.10;99.90;;;;;;5130363;27;20213;-72
2024/03/19 06:14:09;;;;;;;9.10;7.00;;;6.20;99.90;;;;;;5068330;27;20372;-72
2024/03/19 06:16:36;;;;;;;8.65;7.05;;;6.20;99.90;;;;;;5089975;27;20201;-71
2024/03/19 06:19:03;;;;;;;8.52;7.50;;;6.30;99.90;;;;;;5108368;27;20200;-72
2024/03/19 06:21:29;;;;;;;9.57;7.38;;;6.20;99.90;;;;;;5050380;27;20570;-72
2024/03/19 06:23:59;;;;;;;9.50;6.90;;;6.30;99.90;;;;;;5125723;27;20684;-72
2024/03/19 06:26:25;;;;;;;7.78;7.07;;;6.30;99.90;;;;;;5042922;28;21037;-72
2024/03/19 06:28:52;;;;;;;8.55;6.68;;;6.40;99.90;;;;;;5097510;27;20280;-72
2024/03/19 06:31:20;;;;;;;9.43;6.90;;;6.50;99.90;;;;;;5100469;27;20211;-71
2024/03/19 06:33:48;;;;;;;7.17;6.47;;;6.50;99.90;;;;;;5058132;27;20744;-72
2024/03/19 06:36:15;;;;;;;8.25;7.47;;;6.60;99.90;;;;;;5131113;27;20618;-72
2024/03/19 06:38:42;;;;;;;11.30;8.17;;;6.70;99.90;;;;;;5052678;27;20281;-71
2024/03/19 06:41:10;;;;;;;10.63;8.90;;;6.90;99.90;;;;;;5104067;27;20721;-72
2024/03/19 06:43:37;;;;;;;9.68;8.57;;;6.90;99.90;;;;;;5074530;27;20622;-72
2024/03/19 06:46:04;;;;;;;7.30;6.60;;;6.90;99.90;;;;;;5065257;27;20197;-72
2024/03/19 06:48:31;;;;;;;8.97;8.07;;;7.00;99.90;;;;;;5130217;27;20624;-72
2024/03/19 06:50:58;;;;;;;8.17;7.37;;;6.90;99.90;;;;;;5032956;27;20632;-72
2024/03/19 06:53:24;;;;;;;9.90;7.47;;;7.00;99.90;;;;;;5029536;28;20766;-72
2024/03/19 06:55:51;;;;;;;9.10;7.43;;;7.00;99.90;;;;;;5037622;28;20615;-72
2024/03/19 06:58:19;;;;;;;7.30;6.53;;;7.00;99.90;;;;;;5070745;27;20619;-72
2024/03/19 07:00:47;;;;;;;8.93;8.13;;;7.10;99.90;;;;;;5124474;27;20645;-71
2024/03/19 07:03:14;;;;;;;7.37;6.60;;;7.20;99.90;;;;;;5046304;28;20622;-72
2024/03/19 07:05:44;;;;;;;8.87;8.00;;;7.20;99.90;;;;;;5117437;27;20622;-71
2024/03/19 07:08:11;;;;;;;8.80;7.90;;;7.30;99.90;;;;;;5096695;27;21012;-72
2024/03/19 07:10:38;;;;;;;9.77;8.77;;;7.50;99.90;;;;;;5034700;28;20634;-72
2024/03/19 07:13:06;;;;;;;9.43;7.63;;;7.70;99.90;;;;;;5060848;27;20655;-72
2024/03/19 07:15:34;;;;;;;7.90;7.17;;;7.80;99.90;;;;;;5130276;27;20618;-72
2024/03/19 07:18:01;;;;;;;7.67;6.87;;;8.00;99.90;;;;;;5048552;27;20711;-72
2024/03/19 07:20:31;;;;;;;9.20;8.13;;;8.10;99.90;;;;;;5106810;27;20618;-72
2024/03/19 07:22:59;;;;;;;9.90;8.00;;;8.30;99.90;;;;;;5094461;27;20623;-72
2024/03/19 07:25:25;;;;;;;10.53;9.17;;;8.50;99.90;;;;;;5043381;27;20634;-72
2024/03/19 07:27:52;;;;;;;10.80;9.10;;;8.60;99.90;;;;;;5049353;27;20621;-72
2024/03/19 07:30:22;;;;;;;8.87;7.93;;;8.70;99.90;;;;;;5129999;27;20625;-72
2024/03/19 07:32:50;;;;;;;9.33;8.33;;;8.80;99.90;;;;;;5058912;27;20653;-72
2024/03/19 07:35:16;;;;;;;10.03;8.80;;;8.90;99.90;;;;;;5097341;27;20622;-72
2024/03/19 07:37:43;;;;;;;10.83;8.60;;;9.10;99.90;;;;;;5097050;27;20725;-72
2024/03/19 07:40:13;;;;;;;10.23;9.20;;;9.40;99.90;;;;;;5057997;28;20651;-72
2024/03/19 07:42:40;;;;;;;9.40;8.40;;;9.40;99.90;;;;;;5105196;27;20620;-72
2024/03/19 07:45:08;;;;;;;8.20;7.40;;;9.40;99.90;;;;;;5044680;28;20622;-72
2024/03/19 07:47:35;;;;;;;11.60;9.07;;;9.50;99.90;;;;;;5104485;28;20623;-72
2024/03/19 07:50:07;;;;;;;8.70;7.40;;;9.40;99.90;;;;;;5084087;28;20622;-72
2024/03/19 07:52:34;;;;;;;8.70;7.90;;;9.50;99.90;;;;;;5026392;28;20748;-72
2024/03/19 07:55:01;;;;;;;7.70;6.90;;;9.50;99.90;;;;;;5027032;28;20983;-72
2024/03/19 07:57:28;;;;;;;8.87;8.07;;;9.60;99.90;;;;;;5045593;28;20611;-72
2024/03/19 07:59:55;;;;;;;7.20;6.43;;;9.50;99.90;;;;;;5115006;28;20623;-72
2024/03/19 08:02:23;;;;;;;7.97;6.90;;;9.60;99.90;;;;;;5080402;28;20629;-72
2024/03/19 08:04:50;;;;;;;8.60;7.60;;;9.60;99.90;;;;;;5075691;28;21193;-72
2024/03/19 08:07:19;;;;;;;7.43;6.60;;;9.80;99.90;;;;;;5118495;28;20613;-71
2024/03/19 08:09:47;;;;;;;8.50;7.70;;;9.80;99.90;;;;;;5045641;28;20972;-72
2024/03/19 08:12:15;;;;;;;7.83;7.13;;;9.90;99.90;;;;;;5122974;28;20644;-72
2024/03/19 08:14:42;;;;;;;7.37;6.73;;;10.00;99.90;;;;;;5071439;28;20964;-72
2024/03/19 08:17:09;;;;;;;8.27;7.40;;;10.00;99.90;;;;;;5083539;28;20706;-72
2024/03/19 08:19:36;;;;;;;7.17;6.53;;;10.20;99.90;;;;;;5110741;28;20615;-71
2024/03/19 08:22:03;;;;;;;7.33;6.63;;;10.30;99.90;;;;;;5045645;28;20622;-71
2024/03/19 08:24:32;;;;;;;9.00;7.70;;;10.40;99.90;;;;;;5011718;28;21168;-72
2024/03/19 08:26:59;;;;;;;9.60;7.60;;;10.40;99.90;;;;;;5040774;28;20644;-72
2024/03/19 08:29:26;;;;;;;7.63;6.93;;;10.60;99.90;;;;;;5091062;28;21190;-72
2024/03/19 08:31:52;;;;;;;11.00;6.63;;;10.60;99.90;;;;;;5102859;28;20638;-72
2024/03/19 08:34:19;;;;;;;7.97;7.10;;;10.70;99.90;;;;;;5051618;28;20618;-72
2024/03/19 08:36:46;;;;;;;8.27;7.03;;;10.70;99.90;;;;;;5129111;27;20623;-71
2024/03/19 08:39:13;;;;;;;10.60;7.10;;;10.80;99.90;;;;;;5061971;27;20618;-72
2024/03/19 08:41:41;;;;;;;6.63;6.03;;;10.90;99.90;;;;;;5099920;27;20626;-72
2024/03/19 08:44:09;;;;;;;6.23;5.70;;;11.00;99.90;;;;;;5052571;27;21187;-72
2024/03/19 08:46:35;;;;;;;6.63;6.13;;;11.10;99.90;;;;;;5060987;27;20626;-72
2024/03/19 08:49:02;;;;;;;7.13;6.43;;;11.30;99.90;;;;;;5133012;27;20622;-72
2024/03/19 08:51:31;;;;;;;7.43;6.70;;;11.20;99.90;;;;;;5036887;27;20767;-72
2024/03/19 08:53:59;;;;;;;5.90;5.40;;;11.30;99.90;;;;;;5042807;28;20717;-71
2024/03/19 08:56:25;;;;;;;7.40;6.40;;;11.40;99.90;;;;;;5087878;27;20639;-72
2024/03/19 08:58:54;;;;;;;6.83;6.30;;;11.50;99.90;;;;;;5112670;27;21244;-72
2024/03/19 09:01:21;;;;;;;6.17;5.57;;;11.50;99.90;;;;;;5049563;28;20609;-72
2024/03/19 09:03:48;;;;;;;6.23;5.60;;;11.70;99.90;;;;;;5132902;27;21150;-72
2024/03/19 09:06:14;;;;;;;5.90;5.37;;;11.70;99.90;;;;;;5065773;27;20631;-72
2024/03/19 09:08:41;;;;;;;5.90;5.30;;;11.80;99.90;;;;;;5094365;27;20632;-72
2024/03/19 09:11:08;;;;;;;7.83;7.03;;;12.00;99.90;;;;;;5105050;27;20635;-72
2024/03/19 09:13:35;;;;;;;5.90;5.40;;;12.00;99.90;;;;;;5055360;27;20658;-72
2024/03/19 09:16:03;;;;;;;8.13;5.80;;;12.10;99.90;;;;;;5132153;27;20626;-72
2024/03/19 09:18:30;;;;;;;5.13;4.73;;;12.10;99.90;;;;;;5059003;27;20629;-72
2024/03/19 09:20:57;;;;;;;5.00;4.50;;;12.10;99.90;;;;;;5101349;27;20625;-72
2024/03/19 09:23:24;;;;;;;4.77;4.30;;;12.10;99.90;;;;;;5098886;27;20716;-72
2024/03/19 09:25:52;;;;;;;4.90;4.10;;;12.20;99.90;;;;;;5034482;28;20613;-72
2024/03/19 09:28:19;;;;;;;6.03;4.03;;;12.10;99.90;;;;;;5047677;28;20963;-72
2024/03/19 09:30:46;;;;;;;4.30;3.87;;;12.00;99.90;;;;;;5128448;27;20648;-72
2024/03/19 09:33:14;;;;;;;5.40;4.50;;;12.10;99.90;;;;;;5071729;27;20654;-72
2024/03/19 09:35:40;;;;;;;4.33;3.93;;;12.20;99.90;;;;;;5089252;27;20610;-72
2024/03/19 09:38:07;;;;;;;4.50;4.07;;;12.20;99.90;;;;;;5110304;27;20626;-72
2024/03/19 09:40:35;;;;;;;4.50;3.47;;;12.30;99.90;;;;;;5049307;27;21049;-72
2024/03/19 09:43:05;;;;;;;3.67;3.27;;;12.30;99.90;;;;;;5091378;27;21035;-72
2024/03/19 09:45:32;;;;;;;4.33;3.20;;;12.40;99.90;;;;;;5044771;28;20742;-72
2024/03/19 09:47:59;;;;;;;3.60;2.80;;;12.40;99.90;;;;;;5096178;27;20966;-72
2024/03/19 09:50:27;;;;;;;4.50;4.10;;;12.40;99.90;;;;;;5119979;27;20622;-72
2024/03/19 09:52:55;;;;;;;4.80;4.13;;;12.40;99.90;;;;;;5092306;27;20748;-72
2024/03/19 09:55:25;;;;;;;4.30;3.90;;;12.40;99.90;;;;;;5047681;28;20623;-72
2024/03/19 09:57:54;;;;;;;4.30;4.00;;;12.40;99.90;;;;;;5126046;27;20626;-72
2024/03/19 10:00:25;;;;;;;3.43;3.13;;;12.40;99.90;;;;;;5071412;27;21213;-72
2024/03/19 10:02:53;;;;;;;4.30;3.90;;;12.40;99.90;;;;;;5090157;27;20622;-72
2024/03/19 10:05:20;;;;;;;5.30;3.60;;;12.40;99.90;;;;;;5108075;27;20618;-72
2024/03/19 10:07:49;;;;;;;6.10;3.63;;;12.50;99.90;;;;;;5050636;27;20736;-72
2024/03/19 10:10:17;;;;;;;4.20;3.80;;;12.50;99.90;;;;;;5131825;27;21242;-72
2024/03/19 10:12:44;;;;;;;6.10;3.80;;;12.50;99.90;;;;;;5060928;27;20655;-72
2024/03/19 10:15:18;;;;;;;4.10;3.70;;;12.60;99.90;;;;;;5098101;27;20745;-72
2024/03/19 10:17:46;;;;;;;5.70;4.63;;;12.70;99.90;;;;;;5094711;27;20636;-72
2024/03/19 10:20:14;;;;;;;4.37;3.97;;;12.70;99.90;;;;;;5063472;27;20615;-72
2024/03/19 10:22:41;;;;;;;4.20;3.80;;;12.70;99.90;;;;;;5131546;27;20667;-72
2024/03/19 10:25:12;;;;;;;3.73;3.30;;;12.70;99.90;;;;;;5037601;27;21172;-72
2024/03/19 10:27:42;;;;;;;4.43;4.00;;;12.90;99.90;;;;;;5041950;28;20627;-72
2024/03/19 10:30:11;;;;;;;4.17;3.00;;;12.90;99.90;;;;;;5082336;27;20611;-72
2024/03/19 10:32:39;;;;;;;3.97;3.67;;;13.00;99.90;;;;;;5083097;27;21191;-72
2024/03/19 10:35:17;;;;;;;7.77;3.83;;;13.10;99.90;;;;;;5122032;27;20651;-72
2024/03/19 10:37:45;;;;;;;3.57;3.27;;;13.20;99.90;;;;;;5045684;28;20954;-72
2024/03/19 10:40:15;;;;;;;3.63;3.33;;;13.30;99.90;;;;;;5129236;27;20721;-72
2024/03/19 10:42:43;;;;;;;3.40;3.10;;;13.30;99.90;;;;;;5061456;27;20635;-72
2024/03/19 10:45:19;;;;;;;3.27;2.97;;;13.30;99.90;;;;;;5045080;27;20970;-72
2024/03/19 10:47:47;;;;;;;2.50;2.30;;;13.40;99.90;;;;;;5075854;27;20626;-72
2024/03/19 10:50:16;;;;;;;6.40;3.10;;;13.50;99.80;;;;;;5041768;28;20692;-72
2024/03/19 10:52:50;;;;;;;2.60;2.40;;;13.40;99.90;;;;;;5039993;28;21009;-72
2024/03/19 10:55:21;;;;;;;3.93;2.63;;;13.40;99.90;;;;;;5045925;28;21024;-72
2024/03/19 10:57:47;;;;;;;2.60;2.40;;;13.40;99.90;;;;;;5110328;27;20729;-72
2024/03/19 11:00:22;;;;;;;3.30;2.40;;;13.60;99.90;;;;;;5094844;27;20714;-72
2024/03/19 11:02:50;;;;;;;2.17;1.93;;;13.70;99.80;;;;;;5076225;27;20629;-72
2024/03/19 11:05:19;;;;;;;3.10;2.13;;;13.70;99.40;;;;;;5056977;27;20742;-72
2024/03/19 11:07:46;;;;;;;3.13;2.90;;;13.70;98.80;;;;;;5071419;27;21182;-72
2024/03/19 11:10:23;;;;;;;2.57;2.37;;;13.70;98.80;;;;;;5045008;28;20627;-72
2024/03/19 11:12:56;;;;;;;4.53;2.83;;;13.70;99.10;;;;;;5109197;27;20622;-72
2024/03/19 11:15:23;;;;;;;3.83;2.87;;;14.00;98.90;;;;;;5084026;27;20633;-72
2024/03/19 11:17:50;;;;;;;3.00;2.30;;;14.00;98.50;;;;;;5072492;27;21232;-72
2024/03/19 11:20:17;;;;;;;3.23;2.90;;;14.10;98.40;;;;;;5123024;27;20617;-72
2024/03/19 11:22:47;;;;;;;6.97;2.17;;;14.30;98.30;;;;;;5046590;28;20629;-72
2024/03/19 11:25:16;;;;;;;2.30;2.10;;;14.40;97.90;;;;;;5059830;27;20624;-72
2024/03/19 11:27:50;;;;;;;2.90;2.70;;;14.40;98.20;;;;;;5038789;28;20620;-72
2024/03/19 11:30:18;;;;;;;2.83;2.63;;;14.40;98.20;;;;;;5086365;27;20618;-72
2024/03/19 11:32:48;;;;;;;3.60;3.30;;;14.40;97.90;;;;;;5108389;27;21209;-72
2024/03/19 11:35:20;;;;;;;5.40;5.00;;;14.60;97.40;;;;;;5048931;28;20617;-72
2024/03/19 11:37:49;;;;;;;3.27;2.97;;;14.70;98.00;;;;;;5129435;27;20618;-72
2024/03/19 11:40:16;;;;;;;3.60;3.30;;;14.70;98.70;;;;;;5068111;27;20626;-72
2024/03/19 11:42:43;;;;;;;5.70;4.27;;;14.80;98.20;;;;;;5058814;27;20678;-72
2024/03/19 11:45:15;;;;;;;4.60;3.70;;;15.00;98.30;;;;;;5041129;28;20620;-72
2024/03/19 11:47:44;;;;;;;3.70;3.40;;;15.10;99.00;;;;;;5071539;27;20622;-72
2024/03/19 11:50:16;;;;;;;5.00;4.60;;;15.20;98.90;;;;;;5039058;28;21195;-72
2024/03/19 11:52:43;;;;;;;5.60;3.70;;;15.20;98.20;;;;;;5012822;28;20623;-72
2024/03/19 11:55:11;;;;;;;3.63;3.33;;;15.30;99.00;;;;;;5041364;28;20633;-72
2024/03/19 11:57:38;;;;;;;6.63;3.77;;;15.10;97.50;;;;;;5092093;28;20606;-72
2024/03/19 12:00:11;;;;;;;4.50;4.10;;;15.00;98.10;;;;;;5107237;28;20638;-72
2024/03/19 12:02:40;;;;;;;4.40;3.80;;;14.90;97.10;;;;;;5076326;27;20738;-72
2024/03/19 12:05:13;;;;;;;4.23;3.90;;;14.80;97.60;;;;;;5050985;28;20679;-72
2024/03/19 12:07:43;;;;;;;3.43;3.13;;;14.50;97.00;;;;;;5075099;28;20677;-72
2024/03/19 12:10:22;;;;;;;3.73;3.43;;;14.50;97.70;;;;;;5040770;28;20622;-72
2024/03/19 12:12:50;;;;;;;4.50;4.10;;;14.60;98.20;;;;;;5099933;27;20626;-72
2024/03/19 12:15:18;;;;;;;3.73;3.43;;;14.60;98.00;;;;;;5102170;27;20610;-72
2024/03/19 12:17:47;;;;;;;7.63;3.53;;;14.60;97.60;;;;;;5060872;27;20709;-72
2024/03/19 12:20:15;;;;;;;3.30;3.00;;;14.50;98.10;;;;;;5133634;27;21209;-72
2024/03/19 12:22:42;;;;;;;4.90;3.23;;;14.50;97.80;;;;;;5053112;27;20630;-72
2024/03/19 12:25:10;;;;;;;3.10;2.80;;;14.50;98.90;;;;;;5051973;27;20628;-72
2024/03/19 12:27:39;;;;;;;4.00;2.97;;;14.40;97.50;;;;;;5038388;28;20623;-72
2024/03/19 12:30:10;;;;;;;3.67;3.47;;;14.40;98.00;;;;;;5071555;27;20615;-72
2024/03/19 12:32:47;;;;;;;3.20;2.90;;;14.30;97.10;;;;;;5128658;27;20977;-72
2024/03/19 12:35:15;;;;;;;4.60;3.80;;;14.10;97.20;;;;;;5048651;28;20657;-72
2024/03/19 12:37:43;;;;;;;4.17;3.77;;;14.30;98.60;;;;;;5125357;27;20643;-72
2024/03/19 12:40:13;;;;;;;3.57;3.27;;;14.40;98.90;;;;;;5082586;27;20709;-72
2024/03/19 12:42:40;;;;;;;3.90;3.40;;;14.40;97.40;;;;;;5073882;27;20726;-72
2024/03/19 12:45:08;;;;;;;3.83;3.50;;;14.20;96.50;;;;;;5033565;28;20628;-72
2024/03/19 12:47:35;;;;;;;3.30;2.97;;;14.20;97.60;;;;;;5048249;28;20632;-72
2024/03/19 12:50:02;;;;;;;3.43;3.13;;;14.40;98.50;;;;;;5102797;27;20971;-72
2024/03/19 12:52:30;;;;;;;5.03;3.90;;;14.60;98.20;;;;;;5086415;27;20640;-72